Terminal Aerodrome Forecast
Issued by NWS

Home | Current Version | Previous Version | Text Only | Print | Product List | Glossary Off
Versions: 1 2 3 4 5 6 7 8 9 10 11 12 13 14 15

000
FTUS43 KBIS 251700
TAFDIK
TAF
KDIK 251720Z 2518/2618 02012KT P6SM SCT035 BKN100
      TEMPO 2518/2520 3SM -SN
     FM252200 34009KT P6SM SKC=

USA.gov is the U.S. government's official web portal to all federal, state and local government web resources and services.